sensor_id;sensor_type;location;lat;lon;timestamp;P1;durP1;ratioP1;P2;durP2;ratioP2
7128;SDS011;3606;52.930;8.644;2023-04-30T00:01:27;5.97;;;2.57;;
7128;SDS011;3606;52.930;8.644;2023-04-30T00:03:53;5.13;;;2.50;;
7128;SDS011;3606;52.930;8.644;2023-04-30T00:06:19;5.70;;;2.83;;
7128;SDS011;3606;52.930;8.644;2023-04-30T00:08:45;4.87;;;2.77;;
7128;SDS011;3606;52.930;8.644;2023-04-30T00:11:11;7.67;;;2.50;;
7128;SDS011;3606;52.930;8.644;2023-04-30T00:13:36;6.43;;;2.90;;
7128;SDS011;3606;52.930;8.644;2023-04-30T00:16:02;3.63;;;2.67;;
7128;SDS011;3606;52.930;8.644;2023-04-30T00:18:27;4.70;;;2.80;;
7128;SDS011;3606;52.930;8.644;2023-04-30T00:20:53;4.30;;;2.33;;
7128;SDS011;3606;52.930;8.644;2023-04-30T00:23:18;4.37;;;2.60;;
7128;SDS011;3606;52.930;8.644;2023-04-30T00:25:44;3.83;;;2.50;;
7128;SDS011;3606;52.930;8.644;2023-04-30T00:28:10;2.97;;;2.40;;
7128;SDS011;3606;52.930;8.644;2023-04-30T00:30:35;5.23;;;2.80;;
7128;SDS011;3606;52.930;8.644;2023-04-30T00:33:01;6.37;;;2.50;;
7128;SDS011;3606;52.930;8.644;2023-04-30T00:35:26;4.77;;;2.57;;
7128;SDS011;3606;52.930;8.644;2023-04-30T00:37:52;6.13;;;2.73;;
7128;SDS011;3606;52.930;8.644;2023-04-30T00:40:18;5.90;;;2.90;;
7128;SDS011;3606;52.930;8.644;2023-04-30T00:42:44;4.80;;;2.93;;
7128;SDS011;3606;52.930;8.644;2023-04-30T00:45:10;2.60;;;2.40;;
7128;SDS011;3606;52.930;8.644;2023-04-30T00:47:35;7.77;;;2.97;;
7128;SDS011;3606;52.930;8.644;2023-04-30T00:50:01;7.43;;;3.30;;
7128;SDS011;3606;52.930;8.644;2023-04-30T00:52:28;9.37;;;2.83;;
7128;SDS011;3606;52.930;8.644;2023-04-30T00:54:54;8.17;;;3.37;;
7128;SDS011;3606;52.930;8.644;2023-04-30T00:57:20;4.70;;;2.93;;
7128;SDS011;3606;52.930;8.644;2023-04-30T00:59:46;6.63;;;2.67;;
7128;SDS011;3606;52.930;8.644;2023-04-30T01:02:12;6.73;;;2.93;;
7128;SDS011;3606;52.930;8.644;2023-04-30T01:04:39;3.47;;;2.63;;
7128;SDS011;3606;52.930;8.644;2023-04-30T01:07:04;9.63;;;3.37;;
7128;SDS011;3606;52.930;8.644;2023-04-30T01:09:30;7.10;;;3.10;;
7128;SDS011;3606;52.930;8.644;2023-04-30T01:12:31;4.87;;;2.83;;
7128;SDS011;3606;52.930;8.644;2023-04-30T01:20:22;6.83;;;2.80;;
7128;SDS011;3606;52.930;8.644;2023-04-30T01:30:33;6.30;;;3.17;;
7128;SDS011;3606;52.930;8.644;2023-04-30T01:32:59;10.47;;;3.03;;
7128;SDS011;3606;52.930;8.644;2023-04-30T01:35:34;8.47;;;3.23;;
7128;SDS011;3606;52.930;8.644;2023-04-30T01:46:53;5.20;;;3.13;;
7128;SDS011;3606;52.930;8.644;2023-04-30T01:52:17;7.93;;;3.33;;
7128;SDS011;3606;52.930;8.644;2023-04-30T01:55:07;9.13;;;3.10;;
7128;SDS011;3606;52.930;8.644;2023-04-30T01:57:41;6.30;;;3.23;;
7128;SDS011;3606;52.930;8.644;2023-04-30T02:00:14;6.03;;;2.77;;
7128;SDS011;3606;52.930;8.644;2023-04-30T02:02:44;7.50;;;3.13;;
7128;SDS011;3606;52.930;8.644;2023-04-30T02:05:10;10.30;;;3.30;;
7128;SDS011;3606;52.930;8.644;2023-04-30T02:10:09;8.57;;;3.30;;
7128;SDS011;3606;52.930;8.644;2023-04-30T02:12:53;4.30;;;2.83;;
7128;SDS011;3606;52.930;8.644;2023-04-30T02:15:19;5.23;;;3.00;;
7128;SDS011;3606;52.930;8.644;2023-04-30T02:17:44;7.63;;;2.87;;
7128;SDS011;3606;52.930;8.644;2023-04-30T02:20:10;4.83;;;2.80;;
7128;SDS011;3606;52.930;8.644;2023-04-30T02:22:36;3.80;;;2.97;;
7128;SDS011;3606;52.930;8.644;2023-04-30T02:25:02;8.47;;;3.07;;
7128;SDS011;3606;52.930;8.644;2023-04-30T02:27:29;4.17;;;2.83;;
7128;SDS011;3606;52.930;8.644;2023-04-30T02:29:55;5.83;;;3.00;;
7128;SDS011;3606;52.930;8.644;2023-04-30T02:32:21;7.63;;;3.20;;
7128;SDS011;3606;52.930;8.644;2023-04-30T02:34:47;6.73;;;3.10;;
7128;SDS011;3606;52.930;8.644;2023-04-30T02:37:13;4.83;;;2.53;;
7128;SDS011;3606;52.930;8.644;2023-04-30T02:39:38;7.20;;;3.27;;
7128;SDS011;3606;52.930;8.644;2023-04-30T02:42:05;4.20;;;2.93;;
7128;SDS011;3606;52.930;8.644;2023-04-30T02:44:31;5.67;;;3.40;;
7128;SDS011;3606;52.930;8.644;2023-04-30T02:46:57;11.30;;;3.17;;
7128;SDS011;3606;52.930;8.644;2023-04-30T02:49:23;5.17;;;2.90;;
7128;SDS011;3606;52.930;8.644;2023-04-30T02:51:48;4.87;;;3.13;;
7128;SDS011;3606;52.930;8.644;2023-04-30T02:54:14;6.97;;;3.30;;
7128;SDS011;3606;52.930;8.644;2023-04-30T02:56:40;5.93;;;3.60;;
7128;SDS011;3606;52.930;8.644;2023-04-30T02:59:05;5.63;;;3.10;;
7128;SDS011;3606;52.930;8.644;2023-04-30T03:01:32;6.10;;;3.57;;
7128;SDS011;3606;52.930;8.644;2023-04-30T03:03:57;7.47;;;3.10;;
7128;SDS011;3606;52.930;8.644;2023-04-30T03:06:23;5.33;;;3.43;;
7128;SDS011;3606;52.930;8.644;2023-04-30T03:08:49;5.67;;;3.50;;
7128;SDS011;3606;52.930;8.644;2023-04-30T03:11:14;4.43;;;3.20;;
7128;SDS011;3606;52.930;8.644;2023-04-30T03:13:40;5.40;;;3.17;;
7128;SDS011;3606;52.930;8.644;2023-04-30T03:16:06;6.37;;;3.60;;
7128;SDS011;3606;52.930;8.644;2023-04-30T03:18:32;7.27;;;3.40;;
7128;SDS011;3606;52.930;8.644;2023-04-30T03:20:57;6.63;;;3.83;;
7128;SDS011;3606;52.930;8.644;2023-04-30T03:23:25;6.03;;;4.03;;
7128;SDS011;3606;52.930;8.644;2023-04-30T03:25:51;7.23;;;4.27;;
7128;SDS011;3606;52.930;8.644;2023-04-30T03:28:17;6.83;;;4.27;;
7128;SDS011;3606;52.930;8.644;2023-04-30T03:30:43;6.47;;;4.13;;
7128;SDS011;3606;52.930;8.644;2023-04-30T03:33:08;6.20;;;3.97;;
7128;SDS011;3606;52.930;8.644;2023-04-30T03:35:34;11.33;;;3.83;;
7128;SDS011;3606;52.930;8.644;2023-04-30T03:38:00;5.90;;;3.73;;
7128;SDS011;3606;52.930;8.644;2023-04-30T03:40:26;9.40;;;4.33;;
7128;SDS011;3606;52.930;8.644;2023-04-30T03:42:51;10.27;;;3.57;;
7128;SDS011;3606;52.930;8.644;2023-04-30T03:45:17;6.03;;;3.80;;
7128;SDS011;3606;52.930;8.644;2023-04-30T03:47:43;6.93;;;4.20;;
7128;SDS011;3606;52.930;8.644;2023-04-30T03:50:09;6.57;;;4.30;;
7128;SDS011;3606;52.930;8.644;2023-04-30T03:52:35;9.83;;;4.40;;
7128;SDS011;3606;52.930;8.644;2023-04-30T03:55:01;5.63;;;4.00;;
7128;SDS011;3606;52.930;8.644;2023-04-30T03:57:30;7.30;;;4.17;;
7128;SDS011;3606;52.930;8.644;2023-04-30T03:59:56;8.03;;;3.97;;
7128;SDS011;3606;52.930;8.644;2023-04-30T04:02:21;9.03;;;4.23;;
7128;SDS011;3606;52.930;8.644;2023-04-30T04:04:47;10.50;;;4.17;;
7128;SDS011;3606;52.930;8.644;2023-04-30T04:07:13;6.40;;;4.30;;
7128;SDS011;3606;52.930;8.644;2023-04-30T04:09:39;6.70;;;3.50;;
7128;SDS011;3606;52.930;8.644;2023-04-30T04:12:05;6.17;;;3.83;;
7128;SDS011;3606;52.930;8.644;2023-04-30T04:14:31;3.67;;;3.30;;
7128;SDS011;3606;52.930;8.644;2023-04-30T04:16:57;6.10;;;3.33;;
7128;SDS011;3606;52.930;8.644;2023-04-30T04:19:24;7.57;;;3.70;;
7128;SDS011;3606;52.930;8.644;2023-04-30T04:21:50;7.03;;;4.17;;
7128;SDS011;3606;52.930;8.644;2023-04-30T04:24:15;6.40;;;3.43;;
7128;SDS011;3606;52.930;8.644;2023-04-30T04:26:41;7.20;;;3.23;;
7128;SDS011;3606;52.930;8.644;2023-04-30T04:29:06;6.23;;;3.70;;
7128;SDS011;3606;52.930;8.644;2023-04-30T04:31:33;5.97;;;3.97;;
7128;SDS011;3606;52.930;8.644;2023-04-30T04:33:59;4.77;;;4.00;;
7128;SDS011;3606;52.930;8.644;2023-04-30T04:36:26;6.03;;;3.80;;
7128;SDS011;3606;52.930;8.644;2023-04-30T04:38:53;5.93;;;3.93;;
7128;SDS011;3606;52.930;8.644;2023-04-30T04:41:19;6.93;;;4.50;;
7128;SDS011;3606;52.930;8.644;2023-04-30T04:43:45;16.20;;;9.47;;
7128;SDS011;3606;52.930;8.644;2023-04-30T04:46:11;16.07;;;7.40;;
7128;SDS011;3606;52.930;8.644;2023-04-30T04:48:39;12.73;;;6.20;;
7128;SDS011;3606;52.930;8.644;2023-04-30T04:51:04;11.37;;;6.13;;
7128;SDS011;3606;52.930;8.644;2023-04-30T04:53:30;9.83;;;6.17;;
7128;SDS011;3606;52.930;8.644;2023-04-30T04:55:55;9.57;;;5.53;;
7128;SDS011;3606;52.930;8.644;2023-04-30T04:58:21;7.87;;;4.57;;
7128;SDS011;3606;52.930;8.644;2023-04-30T05:00:47;7.63;;;4.50;;
7128;SDS011;3606;52.930;8.644;2023-04-30T05:03:12;9.07;;;4.43;;
7128;SDS011;3606;52.930;8.644;2023-04-30T05:05:38;5.97;;;4.30;;
7128;SDS011;3606;52.930;8.644;2023-04-30T05:08:03;6.43;;;4.60;;
7128;SDS011;3606;52.930;8.644;2023-04-30T05:10:29;7.47;;;4.80;;
7128;SDS011;3606;52.930;8.644;2023-04-30T05:12:55;10.60;;;4.80;;
7128;SDS011;3606;52.930;8.644;2023-04-30T05:15:20;6.97;;;4.67;;
7128;SDS011;3606;52.930;8.644;2023-04-30T05:17:46;8.80;;;4.87;;
7128;SDS011;3606;52.930;8.644;2023-04-30T05:20:11;8.33;;;5.17;;
7128;SDS011;3606;52.930;8.644;2023-04-30T05:22:37;10.70;;;4.53;;
7128;SDS011;3606;52.930;8.644;2023-04-30T05:25:03;8.40;;;5.27;;
7128;SDS011;3606;52.930;8.644;2023-04-30T05:27:29;10.13;;;5.83;;
7128;SDS011;3606;52.930;8.644;2023-04-30T05:29:55;11.80;;;5.60;;
7128;SDS011;3606;52.930;8.644;2023-04-30T05:32:21;8.53;;;5.20;;
7128;SDS011;3606;52.930;8.644;2023-04-30T05:34:47;7.67;;;5.37;;
7128;SDS011;3606;52.930;8.644;2023-04-30T05:37:12;9.40;;;5.10;;
7128;SDS011;3606;52.930;8.644;2023-04-30T05:39:38;6.20;;;4.60;;
7128;SDS011;3606;52.930;8.644;2023-04-30T05:42:04;8.53;;;4.27;;
7128;SDS011;3606;52.930;8.644;2023-04-30T05:44:29;7.33;;;4.20;;
7128;SDS011;3606;52.930;8.644;2023-04-30T05:46:55;9.67;;;4.13;;
7128;SDS011;3606;52.930;8.644;2023-04-30T05:49:21;8.20;;;4.30;;
7128;SDS011;3606;52.930;8.644;2023-04-30T05:51:47;6.33;;;3.80;;
7128;SDS011;3606;52.930;8.644;2023-04-30T05:54:12;6.33;;;3.70;;
7128;SDS011;3606;52.930;8.644;2023-04-30T05:56:38;10.70;;;4.40;;
7128;SDS011;3606;52.930;8.644;2023-04-30T05:59:03;4.47;;;3.80;;
7128;SDS011;3606;52.930;8.644;2023-04-30T06:01:29;7.83;;;4.30;;
7128;SDS011;3606;52.930;8.644;2023-04-30T06:03:54;9.90;;;4.20;;
7128;SDS011;3606;52.930;8.644;2023-04-30T06:06:20;9.77;;;4.17;;
7128;SDS011;3606;52.930;8.644;2023-04-30T06:08:46;9.00;;;4.27;;
7128;SDS011;3606;52.930;8.644;2023-04-30T06:11:11;6.90;;;3.50;;
7128;SDS011;3606;52.930;8.644;2023-04-30T06:13:37;9.27;;;3.43;;
7128;SDS011;3606;52.930;8.644;2023-04-30T06:16:03;6.87;;;3.73;;
7128;SDS011;3606;52.930;8.644;2023-04-30T06:18:30;10.87;;;3.83;;
7128;SDS011;3606;52.930;8.644;2023-04-30T06:20:55;8.00;;;3.30;;
7128;SDS011;3606;52.930;8.644;2023-04-30T06:23:21;6.43;;;3.13;;
7128;SDS011;3606;52.930;8.644;2023-04-30T06:25:47;4.27;;;2.83;;
7128;SDS011;3606;52.930;8.644;2023-04-30T06:28:12;10.83;;;3.30;;
7128;SDS011;3606;52.930;8.644;2023-04-30T06:30:38;5.87;;;2.93;;
7128;SDS011;3606;52.930;8.644;2023-04-30T06:33:05;6.50;;;2.83;;
7128;SDS011;3606;52.930;8.644;2023-04-30T06:35:30;5.23;;;2.67;;
7128;SDS011;3606;52.930;8.644;2023-04-30T06:37:56;6.13;;;2.90;;
7128;SDS011;3606;52.930;8.644;2023-04-30T06:40:22;6.93;;;3.20;;
7128;SDS011;3606;52.930;8.644;2023-04-30T06:42:47;6.37;;;3.10;;
7128;SDS011;3606;52.930;8.644;2023-04-30T06:45:13;7.53;;;2.97;;
7128;SDS011;3606;52.930;8.644;2023-04-30T06:47:41;10.70;;;3.07;;
7128;SDS011;3606;52.930;8.644;2023-04-30T06:50:08;9.20;;;3.20;;
7128;SDS011;3606;52.930;8.644;2023-04-30T06:52:34;5.97;;;3.10;;
7128;SDS011;3606;52.930;8.644;2023-04-30T06:54:59;4.80;;;2.83;;
7128;SDS011;3606;52.930;8.644;2023-04-30T06:57:26;8.23;;;3.40;;
7128;SDS011;3606;52.930;8.644;2023-04-30T06:59:52;6.03;;;2.97;;
7128;SDS011;3606;52.930;8.644;2023-04-30T07:02:18;7.70;;;3.07;;
7128;SDS011;3606;52.930;8.644;2023-04-30T07:04:43;5.00;;;3.17;;
7128;SDS011;3606;52.930;8.644;2023-04-30T07:07:09;6.43;;;2.73;;
7128;SDS011;3606;52.930;8.644;2023-04-30T07:09:34;6.33;;;2.80;;
7128;SDS011;3606;52.930;8.644;2023-04-30T07:12:00;9.93;;;2.57;;
7128;SDS011;3606;52.930;8.644;2023-04-30T07:14:27;8.93;;;2.50;;
7128;SDS011;3606;52.930;8.644;2023-04-30T07:16:53;4.30;;;2.30;;
7128;SDS011;3606;52.930;8.644;2023-04-30T07:19:19;6.97;;;2.53;;
7128;SDS011;3606;52.930;8.644;2023-04-30T07:21:44;5.57;;;2.07;;
7128;SDS011;3606;52.930;8.644;2023-04-30T07:24:10;3.47;;;2.67;;
7128;SDS011;3606;52.930;8.644;2023-04-30T07:26:36;5.07;;;2.53;;
7128;SDS011;3606;52.930;8.644;2023-04-30T07:29:02;4.50;;;2.30;;
7128;SDS011;3606;52.930;8.644;2023-04-30T07:31:28;8.50;;;2.17;;
7128;SDS011;3606;52.930;8.644;2023-04-30T07:33:53;6.33;;;2.40;;
7128;SDS011;3606;52.930;8.644;2023-04-30T07:36:19;4.30;;;2.20;;
7128;SDS011;3606;52.930;8.644;2023-04-30T07:38:45;5.73;;;2.40;;
7128;SDS011;3606;52.930;8.644;2023-04-30T07:41:11;4.97;;;2.50;;
7128;SDS011;3606;52.930;8.644;2023-04-30T07:43:37;4.90;;;2.40;;
7128;SDS011;3606;52.930;8.644;2023-04-30T07:46:03;5.53;;;2.30;;
7128;SDS011;3606;52.930;8.644;2023-04-30T07:48:29;5.73;;;2.53;;
7128;SDS011;3606;52.930;8.644;2023-04-30T07:50:54;5.77;;;2.30;;
7128;SDS011;3606;52.930;8.644;2023-04-30T07:53:21;6.97;;;2.50;;
7128;SDS011;3606;52.930;8.644;2023-04-30T07:55:47;3.90;;;2.17;;
7128;SDS011;3606;52.930;8.644;2023-04-30T07:58:12;7.63;;;3.00;;
7128;SDS011;3606;52.930;8.644;2023-04-30T08:00:38;5.60;;;2.40;;
7128;SDS011;3606;52.930;8.644;2023-04-30T08:03:03;4.77;;;2.13;;
7128;SDS011;3606;52.930;8.644;2023-04-30T08:05:29;5.37;;;2.33;;
7128;SDS011;3606;52.930;8.644;2023-04-30T08:07:55;5.53;;;2.73;;
7128;SDS011;3606;52.930;8.644;2023-04-30T08:10:20;5.77;;;2.23;;
7128;SDS011;3606;52.930;8.644;2023-04-30T08:12:46;8.07;;;2.57;;
7128;SDS011;3606;52.930;8.644;2023-04-30T08:15:11;4.37;;;2.40;;
7128;SDS011;3606;52.930;8.644;2023-04-30T08:17:37;5.33;;;2.33;;
7128;SDS011;3606;52.930;8.644;2023-04-30T08:20:03;5.03;;;2.47;;
7128;SDS011;3606;52.930;8.644;2023-04-30T08:22:29;5.77;;;2.57;;
7128;SDS011;3606;52.930;8.644;2023-04-30T08:24:54;7.50;;;2.40;;
7128;SDS011;3606;52.930;8.644;2023-04-30T08:27:20;7.00;;;2.80;;
7128;SDS011;3606;52.930;8.644;2023-04-30T08:29:47;5.07;;;2.30;;
7128;SDS011;3606;52.930;8.644;2023-04-30T08:32:12;4.03;;;2.30;;
7128;SDS011;3606;52.930;8.644;2023-04-30T08:34:38;7.10;;;3.07;;
7128;SDS011;3606;52.930;8.644;2023-04-30T08:37:07;4.53;;;2.13;;
7128;SDS011;3606;52.930;8.644;2023-04-30T08:39:33;5.63;;;2.60;;
7128;SDS011;3606;52.930;8.644;2023-04-30T08:42:00;6.83;;;2.50;;
7128;SDS011;3606;52.930;8.644;2023-04-30T08:44:28;5.87;;;2.50;;
7128;SDS011;3606;52.930;8.644;2023-04-30T08:46:54;8.23;;;2.77;;
7128;SDS011;3606;52.930;8.644;2023-04-30T08:49:22;10.27;;;2.63;;
7128;SDS011;3606;52.930;8.644;2023-04-30T08:51:49;7.97;;;2.80;;
7128;SDS011;3606;52.930;8.644;2023-04-30T08:54:15;6.03;;;2.90;;
7128;SDS011;3606;52.930;8.644;2023-04-30T08:56:43;4.37;;;2.27;;
7128;SDS011;3606;52.930;8.644;2023-04-30T08:59:10;6.70;;;2.83;;
7128;SDS011;3606;52.930;8.644;2023-04-30T09:01:36;4.07;;;2.23;;
7128;SDS011;3606;52.930;8.644;2023-04-30T09:04:02;4.97;;;2.53;;
7128;SDS011;3606;52.930;8.644;2023-04-30T09:06:28;7.03;;;2.63;;
7128;SDS011;3606;52.930;8.644;2023-04-30T09:08:55;7.03;;;2.30;;
7128;SDS011;3606;52.930;8.644;2023-04-30T09:11:27;5.20;;;2.40;;
7128;SDS011;3606;52.930;8.644;2023-04-30T09:13:57;5.03;;;2.67;;
7128;SDS011;3606;52.930;8.644;2023-04-30T09:16:25;3.80;;;2.60;;
7128;SDS011;3606;52.930;8.644;2023-04-30T09:18:52;6.93;;;2.77;;
7128;SDS011;3606;52.930;8.644;2023-04-30T09:21:34;6.07;;;2.33;;
7128;SDS011;3606;52.930;8.644;2023-04-30T09:24:01;7.68;;;2.90;;
7128;SDS011;3606;52.930;8.644;2023-04-30T09:26:31;5.67;;;2.93;;
7128;SDS011;3606;52.930;8.644;2023-04-30T09:28:59;5.27;;;2.70;;
7128;SDS011;3606;52.930;8.644;2023-04-30T09:31:26;5.50;;;2.80;;
7128;SDS011;3606;52.930;8.644;2023-04-30T09:33:51;4.45;;;2.50;;
7128;SDS011;3606;52.930;8.644;2023-04-30T09:36:18;5.15;;;2.58;;
7128;SDS011;3606;52.930;8.644;2023-04-30T09:38:44;4.53;;;2.45;;
7128;SDS011;3606;52.930;8.644;2023-04-30T09:43:48;6.03;;;2.65;;
7128;SDS011;3606;52.930;8.644;2023-04-30T09:46:14;5.78;;;2.80;;
7128;SDS011;3606;52.930;8.644;2023-04-30T09:48:43;4.80;;;2.80;;
7128;SDS011;3606;52.930;8.644;2023-04-30T09:51:08;6.57;;;2.92;;
7128;SDS011;3606;52.930;8.644;2023-04-30T09:53:38;7.18;;;2.85;;
7128;SDS011;3606;52.930;8.644;2023-04-30T09:56:06;7.45;;;2.58;;
7128;SDS011;3606;52.930;8.644;2023-04-30T09:58:36;5.80;;;2.92;;
7128;SDS011;3606;52.930;8.644;2023-04-30T10:01:05;6.00;;;2.93;;
7128;SDS011;3606;52.930;8.644;2023-04-30T10:03:35;8.57;;;3.07;;
7128;SDS011;3606;52.930;8.644;2023-04-30T10:06:04;6.80;;;3.03;;
7128;SDS011;3606;52.930;8.644;2023-04-30T10:08:31;3.20;;;2.33;;
7128;SDS011;3606;52.930;8.644;2023-04-30T10:11:04;3.47;;;2.47;;
7128;SDS011;3606;52.930;8.644;2023-04-30T10:13:32;5.13;;;2.93;;
7128;SDS011;3606;52.930;8.644;2023-04-30T10:16:06;5.63;;;2.67;;
7128;SDS011;3606;52.930;8.644;2023-04-30T10:18:36;5.87;;;2.80;;
7128;SDS011;3606;52.930;8.644;2023-04-30T10:21:04;4.45;;;2.83;;
7128;SDS011;3606;52.930;8.644;2023-04-30T10:23:36;6.97;;;2.80;;
7128;SDS011;3606;52.930;8.644;2023-04-30T10:26:03;7.13;;;2.65;;
7128;SDS011;3606;52.930;8.644;2023-04-30T10:28:30;3.35;;;2.30;;
7128;SDS011;3606;52.930;8.644;2023-04-30T10:30:56;5.97;;;2.58;;
7128;SDS011;3606;52.930;8.644;2023-04-30T10:35:57;5.70;;;2.47;;
7128;SDS011;3606;52.930;8.644;2023-04-30T10:38:26;5.07;;;2.85;;
7128;SDS011;3606;52.930;8.644;2023-04-30T10:40:55;6.38;;;3.00;;
7128;SDS011;3606;52.930;8.644;2023-04-30T10:43:25;6.30;;;2.97;;
7128;SDS011;3606;52.930;8.644;2023-04-30T10:45:53;2.97;;;2.40;;
7128;SDS011;3606;52.930;8.644;2023-04-30T10:48:22;4.30;;;2.60;;
7128;SDS011;3606;52.930;8.644;2023-04-30T10:51:00;7.72;;;3.10;;
7128;SDS011;3606;52.930;8.644;2023-04-30T10:53:28;4.78;;;2.70;;
7128;SDS011;3606;52.930;8.644;2023-04-30T10:55:59;4.13;;;2.58;;
7128;SDS011;3606;52.930;8.644;2023-04-30T10:58:31;4.30;;;2.67;;
7128;SDS011;3606;52.930;8.644;2023-04-30T11:03:37;8.00;;;3.03;;
7128;SDS011;3606;52.930;8.644;2023-04-30T11:06:07;4.97;;;2.50;;
7128;SDS011;3606;52.930;8.644;2023-04-30T11:08:37;7.05;;;2.92;;
7128;SDS011;3606;52.930;8.644;2023-04-30T11:11:04;4.30;;;2.50;;
7128;SDS011;3606;52.930;8.644;2023-04-30T11:13:39;4.93;;;2.50;;
7128;SDS011;3606;52.930;8.644;2023-04-30T11:16:07;6.90;;;2.55;;
7128;SDS011;3606;52.930;8.644;2023-04-30T11:18:33;7.17;;;3.00;;
7128;SDS011;3606;52.930;8.644;2023-04-30T11:21:04;6.87;;;2.80;;
7128;SDS011;3606;52.930;8.644;2023-04-30T11:23:32;7.33;;;2.57;;
7128;SDS011;3606;52.930;8.644;2023-04-30T11:25:59;3.70;;;2.30;;
7128;SDS011;3606;52.930;8.644;2023-04-30T11:28:26;5.43;;;2.67;;
7128;SDS011;3606;52.930;8.644;2023-04-30T11:30:56;7.40;;;2.60;;
7128;SDS011;3606;52.930;8.644;2023-04-30T11:33:23;4.83;;;2.67;;
7128;SDS011;3606;52.930;8.644;2023-04-30T11:35:53;4.50;;;2.60;;
7128;SDS011;3606;52.930;8.644;2023-04-30T11:38:21;5.57;;;2.80;;
7128;SDS011;3606;52.930;8.644;2023-04-30T11:40:51;5.40;;;2.90;;
7128;SDS011;3606;52.930;8.644;2023-04-30T11:43:21;6.43;;;2.70;;
7128;SDS011;3606;52.930;8.644;2023-04-30T11:46:24;4.70;;;2.67;;
7128;SDS011;3606;52.930;8.644;2023-04-30T11:48:43;4.40;;;2.80;;
7128;SDS011;3606;52.930;8.644;2023-04-30T11:51:13;6.60;;;2.90;;
7128;SDS011;3606;52.930;8.644;2023-04-30T11:53:44;6.82;;;2.60;;
7128;SDS011;3606;52.930;8.644;2023-04-30T11:56:11;3.97;;;2.88;;
7128;SDS011;3606;52.930;8.644;2023-04-30T11:58:36;7.00;;;3.03;;
7128;SDS011;3606;52.930;8.644;2023-04-30T12:01:04;4.10;;;2.67;;
7128;SDS011;3606;52.930;8.644;2023-04-30T12:03:32;6.28;;;2.50;;
7128;SDS011;3606;52.930;8.644;2023-04-30T12:06:05;3.70;;;2.60;;
7128;SDS011;3606;52.930;8.644;2023-04-30T12:08:30;7.03;;;2.55;;
7128;SDS011;3606;52.930;8.644;2023-04-30T12:10:56;5.50;;;2.63;;
7128;SDS011;3606;52.930;8.644;2023-04-30T12:13:22;5.18;;;2.85;;
7128;SDS011;3606;52.930;8.644;2023-04-30T12:15:57;6.57;;;3.03;;
7128;SDS011;3606;52.930;8.644;2023-04-30T12:18:24;4.70;;;2.60;;
7128;SDS011;3606;52.930;8.644;2023-04-30T12:20:50;5.90;;;2.85;;
7128;SDS011;3606;52.930;8.644;2023-04-30T12:23:16;5.18;;;3.00;;
7128;SDS011;3606;52.930;8.644;2023-04-30T12:25:42;5.95;;;2.70;;
7128;SDS011;3606;52.930;8.644;2023-04-30T12:28:08;5.83;;;2.47;;
7128;SDS011;3606;52.930;8.644;2023-04-30T12:30:34;6.57;;;2.80;;
7128;SDS011;3606;52.930;8.644;2023-04-30T12:33:00;7.80;;;2.90;;
7128;SDS011;3606;52.930;8.644;2023-04-30T12:35:28;3.93;;;2.50;;
7128;SDS011;3606;52.930;8.644;2023-04-30T12:38:16;3.07;;;2.67;;
7128;SDS011;3606;52.930;8.644;2023-04-30T12:40:45;5.27;;;2.60;;
7128;SDS011;3606;52.930;8.644;2023-04-30T12:43:13;5.07;;;3.00;;
7128;SDS011;3606;52.930;8.644;2023-04-30T12:45:50;6.90;;;3.00;;
7128;SDS011;3606;52.930;8.644;2023-04-30T12:48:26;5.30;;;2.70;;
7128;SDS011;3606;52.930;8.644;2023-04-30T12:50:57;6.33;;;2.67;;
7128;SDS011;3606;52.930;8.644;2023-04-30T12:53:25;4.65;;;2.45;;
7128;SDS011;3606;52.930;8.644;2023-04-30T12:58:33;4.53;;;2.72;;
7128;SDS011;3606;52.930;8.644;2023-04-30T13:00:59;4.50;;;2.90;;
7128;SDS011;3606;52.930;8.644;2023-04-30T13:03:25;4.72;;;2.47;;
7128;SDS011;3606;52.930;8.644;2023-04-30T13:05:51;5.53;;;2.25;;
7128;SDS011;3606;52.930;8.644;2023-04-30T13:08:17;5.88;;;2.38;;
7128;SDS011;3606;52.930;8.644;2023-04-30T13:10:46;6.35;;;2.72;;
7128;SDS011;3606;52.930;8.644;2023-04-30T13:13:13;5.28;;;2.80;;
7128;SDS011;3606;52.930;8.644;2023-04-30T13:15:39;6.82;;;2.53;;
7128;SDS011;3606;52.930;8.644;2023-04-30T13:18:06;6.60;;;2.63;;
7128;SDS011;3606;52.930;8.644;2023-04-30T13:20:33;5.10;;;2.95;;
7128;SDS011;3606;52.930;8.644;2023-04-30T13:22:59;6.05;;;2.80;;
7128;SDS011;3606;52.930;8.644;2023-04-30T13:25:25;2.90;;;2.05;;
7128;SDS011;3606;52.930;8.644;2023-04-30T13:27:51;3.53;;;2.10;;
7128;SDS011;3606;52.930;8.644;2023-04-30T13:30:16;5.13;;;2.53;;
7128;SDS011;3606;52.930;8.644;2023-04-30T13:32:42;5.90;;;2.87;;
7128;SDS011;3606;52.930;8.644;2023-04-30T13:35:08;4.40;;;2.43;;
7128;SDS011;3606;52.930;8.644;2023-04-30T13:37:35;4.67;;;2.60;;
7128;SDS011;3606;52.930;8.644;2023-04-30T13:40:01;3.57;;;2.50;;
7128;SDS011;3606;52.930;8.644;2023-04-30T13:42:27;4.93;;;2.93;;
7128;SDS011;3606;52.930;8.644;2023-04-30T13:44:53;5.40;;;2.83;;
7128;SDS011;3606;52.930;8.644;2023-04-30T13:47:20;7.10;;;2.97;;
7128;SDS011;3606;52.930;8.644;2023-04-30T13:49:45;4.10;;;2.87;;
7128;SDS011;3606;52.930;8.644;2023-04-30T13:52:11;3.23;;;2.83;;
7128;SDS011;3606;52.930;8.644;2023-04-30T13:54:37;9.33;;;2.77;;
7128;SDS011;3606;52.930;8.644;2023-04-30T13:57:03;6.27;;;2.73;;
7128;SDS011;3606;52.930;8.644;2023-04-30T13:59:29;5.10;;;2.43;;
7128;SDS011;3606;52.930;8.644;2023-04-30T14:01:55;2.23;;;1.87;;
7128;SDS011;3606;52.930;8.644;2023-04-30T14:04:21;6.93;;;2.70;;
7128;SDS011;3606;52.930;8.644;2023-04-30T14:06:47;5.73;;;2.43;;
7128;SDS011;3606;52.930;8.644;2023-04-30T14:09:13;5.43;;;2.50;;
7128;SDS011;3606;52.930;8.644;2023-04-30T14:11:39;5.37;;;2.83;;
7128;SDS011;3606;52.930;8.644;2023-04-30T14:14:06;3.80;;;2.30;;
7128;SDS011;3606;52.930;8.644;2023-04-30T14:16:33;8.77;;;2.60;;
7128;SDS011;3606;52.930;8.644;2023-04-30T14:18:58;8.30;;;2.50;;
7128;SDS011;3606;52.930;8.644;2023-04-30T14:21:24;4.20;;;2.33;;
7128;SDS011;3606;52.930;8.644;2023-04-30T14:23:51;3.27;;;2.10;;
7128;SDS011;3606;52.930;8.644;2023-04-30T14:26:17;2.97;;;2.23;;
7128;SDS011;3606;52.930;8.644;2023-04-30T14:28:42;4.90;;;1.87;;
7128;SDS011;3606;52.930;8.644;2023-04-30T14:31:08;2.20;;;1.50;;
7128;SDS011;3606;52.930;8.644;2023-04-30T14:33:34;1.80;;;1.50;;
7128;SDS011;3606;52.930;8.644;2023-04-30T14:36:00;3.40;;;1.70;;
7128;SDS011;3606;52.930;8.644;2023-04-30T14:38:26;6.33;;;1.87;;
7128;SDS011;3606;52.930;8.644;2023-04-30T14:40:51;5.10;;;2.30;;
7128;SDS011;3606;52.930;8.644;2023-04-30T14:43:17;3.53;;;1.73;;
7128;SDS011;3606;52.930;8.644;2023-04-30T14:45:45;3.10;;;1.87;;
7128;SDS011;3606;52.930;8.644;2023-04-30T14:48:34;3.57;;;1.93;;
7128;SDS011;3606;52.930;8.644;2023-04-30T14:50:59;2.87;;;1.90;;
7128;SDS011;3606;52.930;8.644;2023-04-30T14:53:25;3.63;;;1.97;;
7128;SDS011;3606;52.930;8.644;2023-04-30T14:55:51;4.87;;;1.90;;
7128;SDS011;3606;52.930;8.644;2023-04-30T14:58:17;3.13;;;1.67;;
7128;SDS011;3606;52.930;8.644;2023-04-30T15:00:44;2.73;;;1.67;;
7128;SDS011;3606;52.930;8.644;2023-04-30T15:03:10;2.70;;;1.87;;
7128;SDS011;3606;52.930;8.644;2023-04-30T15:05:36;4.27;;;1.83;;
7128;SDS011;3606;52.930;8.644;2023-04-30T15:08:01;3.17;;;1.57;;
7128;SDS011;3606;52.930;8.644;2023-04-30T15:10:27;2.93;;;1.57;;
7128;SDS011;3606;52.930;8.644;2023-04-30T15:12:53;4.87;;;1.80;;
7128;SDS011;3606;52.930;8.644;2023-04-30T15:15:18;3.73;;;1.70;;
7128;SDS011;3606;52.930;8.644;2023-04-30T15:17:46;2.63;;;1.57;;
7128;SDS011;3606;52.930;8.644;2023-04-30T15:20:12;2.30;;;1.67;;
7128;SDS011;3606;52.930;8.644;2023-04-30T15:22:38;2.77;;;2.10;;
7128;SDS011;3606;52.930;8.644;2023-04-30T15:25:04;3.83;;;1.70;;
7128;SDS011;3606;52.930;8.644;2023-04-30T15:27:30;2.93;;;1.77;;
7128;SDS011;3606;52.930;8.644;2023-04-30T15:29:56;3.60;;;2.00;;
7128;SDS011;3606;52.930;8.644;2023-04-30T15:32:22;4.30;;;2.27;;
7128;SDS011;3606;52.930;8.644;2023-04-30T15:34:47;2.80;;;2.00;;
7128;SDS011;3606;52.930;8.644;2023-04-30T15:37:13;5.57;;;1.87;;
7128;SDS011;3606;52.930;8.644;2023-04-30T15:39:38;3.57;;;1.80;;
7128;SDS011;3606;52.930;8.644;2023-04-30T15:42:04;4.73;;;2.00;;
7128;SDS011;3606;52.930;8.644;2023-04-30T15:44:30;3.33;;;2.17;;
7128;SDS011;3606;52.930;8.644;2023-04-30T15:46:55;3.97;;;2.07;;
7128;SDS011;3606;52.930;8.644;2023-04-30T15:49:21;5.70;;;2.30;;
7128;SDS011;3606;52.930;8.644;2023-04-30T15:51:47;10.70;;;2.17;;